sensor_id;sensor_type;location;lat;lon;timestamp;P1;durP1;ratioP1;P2;durP2;ratioP2
17953;SDS011;9102;53.548;9.926;2023-02-01T00:00:31;24.27;;;3.60;;
17953;SDS011;9102;53.548;9.926;2023-02-01T00:02:59;26.88;;;3.53;;
17953;SDS011;9102;53.548;9.926;2023-02-01T00:05:26;33.53;;;4.40;;
17953;SDS011;9102;53.548;9.926;2023-02-01T00:07:53;27.65;;;4.90;;
17953;SDS011;9102;53.548;9.926;2023-02-01T00:10:20;32.25;;;4.63;;
17953;SDS011;9102;53.548;9.926;2023-02-01T00:12:46;27.88;;;5.63;;
17953;SDS011;9102;53.548;9.926;2023-02-01T00:15:13;27.45;;;4.18;;
17953;SDS011;9102;53.548;9.926;2023-02-01T00:17:42;34.85;;;5.47;;
17953;SDS011;9102;53.548;9.926;2023-02-01T00:20:09;29.17;;;4.28;;
17953;SDS011;9102;53.548;9.926;2023-02-01T00:22:37;32.30;;;4.57;;
17953;SDS011;9102;53.548;9.926;2023-02-01T00:25:04;24.65;;;4.30;;
17953;SDS011;9102;53.548;9.926;2023-02-01T00:27:31;37.03;;;4.60;;
17953;SDS011;9102;53.548;9.926;2023-02-01T00:29:58;23.42;;;3.92;;
17953;SDS011;9102;53.548;9.926;2023-02-01T00:32:25;38.55;;;5.00;;
17953;SDS011;9102;53.548;9.926;2023-02-01T00:34:53;34.97;;;4.63;;
17953;SDS011;9102;53.548;9.926;2023-02-01T00:37:20;31.88;;;4.78;;
17953;SDS011;9102;53.548;9.926;2023-02-01T00:39:48;34.00;;;4.97;;
17953;SDS011;9102;53.548;9.926;2023-02-01T00:42:15;38.33;;;4.45;;
17953;SDS011;9102;53.548;9.926;2023-02-01T00:44:42;34.45;;;5.43;;
17953;SDS011;9102;53.548;9.926;2023-02-01T00:47:08;32.80;;;5.50;;
17953;SDS011;9102;53.548;9.926;2023-02-01T00:49:35;33.38;;;5.18;;
17953;SDS011;9102;53.548;9.926;2023-02-01T00:52:03;35.65;;;5.35;;
17953;SDS011;9102;53.548;9.926;2023-02-01T00:54:30;30.73;;;4.45;;
17953;SDS011;9102;53.548;9.926;2023-02-01T00:56:58;36.53;;;5.32;;
17953;SDS011;9102;53.548;9.926;2023-02-01T00:59:25;30.02;;;4.50;;
17953;SDS011;9102;53.548;9.926;2023-02-01T01:01:52;35.85;;;5.03;;
17953;SDS011;9102;53.548;9.926;2023-02-01T01:04:19;47.67;;;5.85;;
17953;SDS011;9102;53.548;9.926;2023-02-01T01:06:46;46.05;;;5.78;;
17953;SDS011;9102;53.548;9.926;2023-02-01T01:09:14;32.67;;;4.95;;
17953;SDS011;9102;53.548;9.926;2023-02-01T01:11:40;38.30;;;4.90;;
17953;SDS011;9102;53.548;9.926;2023-02-01T01:14:09;38.63;;;5.28;;
17953;SDS011;9102;53.548;9.926;2023-02-01T01:16:37;34.70;;;5.03;;
17953;SDS011;9102;53.548;9.926;2023-02-01T01:19:04;36.58;;;4.75;;
17953;SDS011;9102;53.548;9.926;2023-02-01T01:21:30;37.60;;;5.35;;
17953;SDS011;9102;53.548;9.926;2023-02-01T01:23:57;35.65;;;5.13;;
17953;SDS011;9102;53.548;9.926;2023-02-01T01:26:26;37.35;;;5.03;;
17953;SDS011;9102;53.548;9.926;2023-02-01T01:28:54;35.22;;;5.82;;
17953;SDS011;9102;53.548;9.926;2023-02-01T01:31:22;34.30;;;4.38;;
17953;SDS011;9102;53.548;9.926;2023-02-01T01:33:50;28.63;;;5.38;;
17953;SDS011;9102;53.548;9.926;2023-02-01T01:36:18;34.90;;;5.85;;
17953;SDS011;9102;53.548;9.926;2023-02-01T01:38:46;35.28;;;4.63;;
17953;SDS011;9102;53.548;9.926;2023-02-01T01:41:13;39.63;;;6.05;;
17953;SDS011;9102;53.548;9.926;2023-02-01T01:43:48;40.92;;;5.55;;
17953;SDS011;9102;53.548;9.926;2023-02-01T01:46:20;37.85;;;5.72;;
17953;SDS011;9102;53.548;9.926;2023-02-01T01:48:49;36.50;;;5.57;;
17953;SDS011;9102;53.548;9.926;2023-02-01T01:51:20;36.72;;;5.22;;
17953;SDS011;9102;53.548;9.926;2023-02-01T01:53:50;40.30;;;6.25;;
17953;SDS011;9102;53.548;9.926;2023-02-01T01:56:24;33.35;;;5.45;;
17953;SDS011;9102;53.548;9.926;2023-02-01T01:58:54;36.35;;;5.47;;
17953;SDS011;9102;53.548;9.926;2023-02-01T02:01:22;33.92;;;5.20;;
17953;SDS011;9102;53.548;9.926;2023-02-01T02:03:49;33.65;;;5.10;;
17953;SDS011;9102;53.548;9.926;2023-02-01T02:06:20;42.15;;;6.47;;
17953;SDS011;9102;53.548;9.926;2023-02-01T02:08:54;36.58;;;5.35;;
17953;SDS011;9102;53.548;9.926;2023-02-01T02:11:21;41.15;;;6.35;;
17953;SDS011;9102;53.548;9.926;2023-02-01T02:13:48;35.92;;;5.65;;
17953;SDS011;9102;53.548;9.926;2023-02-01T02:22:21;38.22;;;5.57;;
17953;SDS011;9102;53.548;9.926;2023-02-01T02:28:05;35.95;;;6.50;;
17953;SDS011;9102;53.548;9.926;2023-02-01T02:30:49;37.85;;;5.15;;
17953;SDS011;9102;53.548;9.926;2023-02-01T02:36:23;37.92;;;5.40;;
17953;SDS011;9102;53.548;9.926;2023-02-01T02:39:03;54.55;;;6.15;;
17953;SDS011;9102;53.548;9.926;2023-02-01T02:41:34;40.53;;;6.43;;
17953;SDS011;9102;53.548;9.926;2023-02-01T02:44:27;37.22;;;5.88;;
17953;SDS011;9102;53.548;9.926;2023-02-01T02:47:21;41.30;;;4.95;;
17953;SDS011;9102;53.548;9.926;2023-02-01T02:49:55;41.85;;;5.97;;
17953;SDS011;9102;53.548;9.926;2023-02-01T02:52:57;31.27;;;5.05;;
17953;SDS011;9102;53.548;9.926;2023-02-01T02:55:47;33.47;;;5.05;;
17953;SDS011;9102;53.548;9.926;2023-02-01T02:58:16;42.80;;;7.25;;
17953;SDS011;9102;53.548;9.926;2023-02-01T03:01:02;36.38;;;5.55;;
17953;SDS011;9102;53.548;9.926;2023-02-01T03:03:46;41.17;;;6.22;;
17953;SDS011;9102;53.548;9.926;2023-02-01T03:06:36;38.67;;;6.15;;
17953;SDS011;9102;53.548;9.926;2023-02-01T03:09:05;35.85;;;5.05;;
17953;SDS011;9102;53.548;9.926;2023-02-01T03:11:39;36.72;;;5.20;;
17953;SDS011;9102;53.548;9.926;2023-02-01T03:14:26;37.47;;;5.25;;
17953;SDS011;9102;53.548;9.926;2023-02-01T03:16:57;38.50;;;6.03;;
17953;SDS011;9102;53.548;9.926;2023-02-01T03:19:29;40.78;;;5.22;;
17953;SDS011;9102;53.548;9.926;2023-02-01T03:22:03;42.08;;;6.57;;
17953;SDS011;9102;53.548;9.926;2023-02-01T03:24:34;26.48;;;4.60;;
17953;SDS011;9102;53.548;9.926;2023-02-01T03:27:08;38.35;;;4.68;;
17953;SDS011;9102;53.548;9.926;2023-02-01T03:29:40;33.50;;;4.40;;
17953;SDS011;9102;53.548;9.926;2023-02-01T03:32:11;26.85;;;3.35;;
17953;SDS011;9102;53.548;9.926;2023-02-01T03:34:38;33.58;;;4.28;;
17953;SDS011;9102;53.548;9.926;2023-02-01T03:37:08;21.40;;;4.18;;
17953;SDS011;9102;53.548;9.926;2023-02-01T03:39:38;27.60;;;3.33;;
17953;SDS011;9102;53.548;9.926;2023-02-01T03:42:10;22.95;;;3.15;;
17953;SDS011;9102;53.548;9.926;2023-02-01T03:44:41;16.27;;;2.63;;
17953;SDS011;9102;53.548;9.926;2023-02-01T03:47:15;25.63;;;2.75;;
17953;SDS011;9102;53.548;9.926;2023-02-01T03:49:46;18.67;;;2.30;;
17953;SDS011;9102;53.548;9.926;2023-02-01T03:52:18;20.70;;;3.17;;
17953;SDS011;9102;53.548;9.926;2023-02-01T03:54:48;14.50;;;2.60;;
17953;SDS011;9102;53.548;9.926;2023-02-01T03:57:17;19.10;;;2.83;;
17953;SDS011;9102;53.548;9.926;2023-02-01T03:59:48;30.92;;;3.97;;
17953;SDS011;9102;53.548;9.926;2023-02-01T04:02:16;24.40;;;4.50;;
17953;SDS011;9102;53.548;9.926;2023-02-01T04:04:43;27.42;;;3.65;;
17953;SDS011;9102;53.548;9.926;2023-02-01T04:07:10;38.35;;;4.05;;
17953;SDS011;9102;53.548;9.926;2023-02-01T04:09:38;24.65;;;4.28;;
17953;SDS011;9102;53.548;9.926;2023-02-01T04:12:05;26.55;;;4.22;;
17953;SDS011;9102;53.548;9.926;2023-02-01T04:14:32;36.47;;;4.15;;
17953;SDS011;9102;53.548;9.926;2023-02-01T04:17:00;34.95;;;4.38;;
17953;SDS011;9102;53.548;9.926;2023-02-01T04:19:27;36.28;;;4.03;;
17953;SDS011;9102;53.548;9.926;2023-02-01T04:21:53;23.10;;;2.50;;
17953;SDS011;9102;53.548;9.926;2023-02-01T04:24:20;21.08;;;3.13;;
17953;SDS011;9102;53.548;9.926;2023-02-01T04:26:48;23.85;;;4.47;;
17953;SDS011;9102;53.548;9.926;2023-02-01T04:29:15;31.73;;;5.10;;
17953;SDS011;9102;53.548;9.926;2023-02-01T04:31:42;27.23;;;3.42;;
17953;SDS011;9102;53.548;9.926;2023-02-01T04:34:09;28.35;;;3.30;;
17953;SDS011;9102;53.548;9.926;2023-02-01T04:36:36;25.48;;;3.90;;
17953;SDS011;9102;53.548;9.926;2023-02-01T04:39:02;28.33;;;3.40;;
17953;SDS011;9102;53.548;9.926;2023-02-01T04:41:29;21.13;;;3.50;;
17953;SDS011;9102;53.548;9.926;2023-02-01T04:43:57;32.60;;;4.88;;
17953;SDS011;9102;53.548;9.926;2023-02-01T04:46:24;31.02;;;2.97;;
17953;SDS011;9102;53.548;9.926;2023-02-01T04:48:51;23.13;;;2.78;;
17953;SDS011;9102;53.548;9.926;2023-02-01T04:51:18;25.58;;;2.67;;
17953;SDS011;9102;53.548;9.926;2023-02-01T04:53:45;18.25;;;3.22;;
17953;SDS011;9102;53.548;9.926;2023-02-01T04:56:11;17.23;;;2.80;;
17953;SDS011;9102;53.548;9.926;2023-02-01T04:58:38;15.65;;;3.15;;
17953;SDS011;9102;53.548;9.926;2023-02-01T05:01:06;16.25;;;2.42;;
17953;SDS011;9102;53.548;9.926;2023-02-01T05:03:34;20.13;;;3.13;;
17953;SDS011;9102;53.548;9.926;2023-02-01T05:06:01;10.38;;;1.73;;
17953;SDS011;9102;53.548;9.926;2023-02-01T05:08:29;9.85;;;1.83;;
17953;SDS011;9102;53.548;9.926;2023-02-01T05:10:55;14.18;;;1.75;;
17953;SDS011;9102;53.548;9.926;2023-02-01T05:13:23;7.18;;;1.30;;
17953;SDS011;9102;53.548;9.926;2023-02-01T05:16:09;4.28;;;0.85;;
17953;SDS011;9102;53.548;9.926;2023-02-01T05:18:36;4.95;;;0.90;;
17953;SDS011;9102;53.548;9.926;2023-02-01T05:21:02;8.13;;;0.70;;
17953;SDS011;9102;53.548;9.926;2023-02-01T05:23:30;5.22;;;0.75;;
17953;SDS011;9102;53.548;9.926;2023-02-01T05:26:00;6.57;;;0.82;;
17953;SDS011;9102;53.548;9.926;2023-02-01T05:28:28;9.25;;;1.23;;
17953;SDS011;9102;53.548;9.926;2023-02-01T05:30:54;5.18;;;0.63;;
17953;SDS011;9102;53.548;9.926;2023-02-01T05:33:23;3.08;;;0.95;;
17953;SDS011;9102;53.548;9.926;2023-02-01T05:35:49;3.72;;;0.88;;
17953;SDS011;9102;53.548;9.926;2023-02-01T05:38:16;5.93;;;0.60;;
17953;SDS011;9102;53.548;9.926;2023-02-01T05:40:43;6.63;;;0.57;;
17953;SDS011;9102;53.548;9.926;2023-02-01T05:43:14;5.15;;;0.70;;
17953;SDS011;9102;53.548;9.926;2023-02-01T05:45:41;1.35;;;0.73;;
17953;SDS011;9102;53.548;9.926;2023-02-01T05:48:08;5.18;;;0.50;;
17953;SDS011;9102;53.548;9.926;2023-02-01T05:50:36;3.97;;;0.82;;
17953;SDS011;9102;53.548;9.926;2023-02-01T05:53:03;2.88;;;0.60;;
17953;SDS011;9102;53.548;9.926;2023-02-01T05:55:30;3.17;;;0.80;;
17953;SDS011;9102;53.548;9.926;2023-02-01T05:57:57;4.47;;;0.75;;
17953;SDS011;9102;53.548;9.926;2023-02-01T06:00:24;1.23;;;0.50;;
17953;SDS011;9102;53.548;9.926;2023-02-01T06:02:50;3.03;;;0.50;;
17953;SDS011;9102;53.548;9.926;2023-02-01T06:05:17;3.08;;;0.77;;
17953;SDS011;9102;53.548;9.926;2023-02-01T06:07:46;3.83;;;1.00;;
17953;SDS011;9102;53.548;9.926;2023-02-01T06:10:13;2.63;;;0.80;;
17953;SDS011;9102;53.548;9.926;2023-02-01T06:12:40;5.15;;;0.82;;
17953;SDS011;9102;53.548;9.926;2023-02-01T06:15:07;3.72;;;1.00;;
17953;SDS011;9102;53.548;9.926;2023-02-01T06:17:34;3.10;;;0.98;;
17953;SDS011;9102;53.548;9.926;2023-02-01T06:20:01;4.07;;;0.82;;
17953;SDS011;9102;53.548;9.926;2023-02-01T06:22:28;4.78;;;1.10;;
17953;SDS011;9102;53.548;9.926;2023-02-01T06:24:56;5.07;;;1.08;;
17953;SDS011;9102;53.548;9.926;2023-02-01T06:27:23;11.05;;;1.40;;
17953;SDS011;9102;53.548;9.926;2023-02-01T06:29:50;8.95;;;1.40;;
17953;SDS011;9102;53.548;9.926;2023-02-01T06:32:17;12.07;;;1.30;;
17953;SDS011;9102;53.548;9.926;2023-02-01T06:34:44;6.03;;;1.40;;
17953;SDS011;9102;53.548;9.926;2023-02-01T06:37:10;9.00;;;1.60;;
17953;SDS011;9102;53.548;9.926;2023-02-01T06:39:37;12.93;;;1.70;;
17953;SDS011;9102;53.548;9.926;2023-02-01T06:42:06;12.90;;;1.70;;
17953;SDS011;9102;53.548;9.926;2023-02-01T06:44:32;16.13;;;2.20;;
17953;SDS011;9102;53.548;9.926;2023-02-01T06:46:59;13.23;;;2.08;;
17953;SDS011;9102;53.548;9.926;2023-02-01T06:49:26;13.15;;;2.22;;
17953;SDS011;9102;53.548;9.926;2023-02-01T06:51:53;13.27;;;2.22;;
17953;SDS011;9102;53.548;9.926;2023-02-01T06:54:19;17.33;;;2.30;;
17953;SDS011;9102;53.548;9.926;2023-02-01T06:56:46;21.70;;;2.70;;
17953;SDS011;9102;53.548;9.926;2023-02-01T06:59:14;21.63;;;3.05;;
17953;SDS011;9102;53.548;9.926;2023-02-01T07:01:41;23.33;;;3.63;;
17953;SDS011;9102;53.548;9.926;2023-02-01T07:04:09;24.25;;;2.65;;
17953;SDS011;9102;53.548;9.926;2023-02-01T07:06:36;28.25;;;3.30;;
17953;SDS011;9102;53.548;9.926;2023-02-01T07:09:03;22.63;;;3.03;;
17953;SDS011;9102;53.548;9.926;2023-02-01T07:11:30;20.95;;;3.13;;
17953;SDS011;9102;53.548;9.926;2023-02-01T07:13:57;39.88;;;4.28;;
17953;SDS011;9102;53.548;9.926;2023-02-01T07:16:25;22.77;;;3.78;;
17953;SDS011;9102;53.548;9.926;2023-02-01T07:18:54;26.58;;;3.75;;
17953;SDS011;9102;53.548;9.926;2023-02-01T07:21:21;39.70;;;4.85;;
17953;SDS011;9102;53.548;9.926;2023-02-01T07:23:48;34.17;;;4.50;;
17953;SDS011;9102;53.548;9.926;2023-02-01T07:26:15;28.75;;;3.95;;
17953;SDS011;9102;53.548;9.926;2023-02-01T07:28:42;48.53;;;4.93;;
17953;SDS011;9102;53.548;9.926;2023-02-01T07:31:09;46.60;;;5.38;;
17953;SDS011;9102;53.548;9.926;2023-02-01T07:33:39;42.45;;;6.25;;
17953;SDS011;9102;53.548;9.926;2023-02-01T07:36:07;51.13;;;5.45;;
17953;SDS011;9102;53.548;9.926;2023-02-01T07:38:37;34.80;;;4.75;;
17953;SDS011;9102;53.548;9.926;2023-02-01T07:41:05;46.45;;;6.22;;
17953;SDS011;9102;53.548;9.926;2023-02-01T07:43:33;52.88;;;7.40;;
17953;SDS011;9102;53.548;9.926;2023-02-01T07:46:00;49.42;;;7.22;;
17953;SDS011;9102;53.548;9.926;2023-02-01T07:48:29;43.60;;;5.20;;
17953;SDS011;9102;53.548;9.926;2023-02-01T07:50:58;48.95;;;5.53;;
17953;SDS011;9102;53.548;9.926;2023-02-01T07:53:25;51.80;;;6.68;;
17953;SDS011;9102;53.548;9.926;2023-02-01T07:55:52;45.92;;;6.00;;
17953;SDS011;9102;53.548;9.926;2023-02-01T07:58:21;47.72;;;7.75;;
17953;SDS011;9102;53.548;9.926;2023-02-01T08:00:47;48.78;;;6.25;;
17953;SDS011;9102;53.548;9.926;2023-02-01T08:03:32;43.83;;;5.78;;
17953;SDS011;9102;53.548;9.926;2023-02-01T08:06:00;58.40;;;6.18;;
17953;SDS011;9102;53.548;9.926;2023-02-01T08:08:27;55.58;;;6.57;;
17953;SDS011;9102;53.548;9.926;2023-02-01T08:10:56;44.45;;;6.13;;
17953;SDS011;9102;53.548;9.926;2023-02-01T08:13:23;44.72;;;6.15;;
17953;SDS011;9102;53.548;9.926;2023-02-01T08:15:50;57.78;;;6.68;;
17953;SDS011;9102;53.548;9.926;2023-02-01T08:18:17;42.67;;;5.85;;
17953;SDS011;9102;53.548;9.926;2023-02-01T08:20:45;52.55;;;6.18;;
17953;SDS011;9102;53.548;9.926;2023-02-01T08:23:14;44.92;;;6.70;;
17953;SDS011;9102;53.548;9.926;2023-02-01T08:25:40;41.88;;;6.18;;
17953;SDS011;9102;53.548;9.926;2023-02-01T08:28:08;53.63;;;5.63;;
17953;SDS011;9102;53.548;9.926;2023-02-01T08:30:36;42.13;;;6.82;;
17953;SDS011;9102;53.548;9.926;2023-02-01T08:33:03;48.50;;;6.97;;
17953;SDS011;9102;53.548;9.926;2023-02-01T08:35:30;40.83;;;6.75;;
17953;SDS011;9102;53.548;9.926;2023-02-01T08:37:57;47.95;;;6.13;;
17953;SDS011;9102;53.548;9.926;2023-02-01T08:40:25;54.63;;;6.03;;
17953;SDS011;9102;53.548;9.926;2023-02-01T08:42:53;34.83;;;5.13;;
17953;SDS011;9102;53.548;9.926;2023-02-01T08:45:20;36.90;;;4.53;;
17953;SDS011;9102;53.548;9.926;2023-02-01T08:47:50;39.95;;;6.88;;
17953;SDS011;9102;53.548;9.926;2023-02-01T08:50:17;36.00;;;5.70;;
17953;SDS011;9102;53.548;9.926;2023-02-01T08:52:45;49.65;;;6.95;;
17953;SDS011;9102;53.548;9.926;2023-02-01T08:55:12;42.97;;;5.95;;
17953;SDS011;9102;53.548;9.926;2023-02-01T08:57:41;33.85;;;4.53;;
17953;SDS011;9102;53.548;9.926;2023-02-01T09:00:10;31.80;;;5.65;;
17953;SDS011;9102;53.548;9.926;2023-02-01T09:02:40;35.25;;;5.05;;
17953;SDS011;9102;53.548;9.926;2023-02-01T09:05:07;49.00;;;5.57;;
17953;SDS011;9102;53.548;9.926;2023-02-01T09:07:35;31.92;;;5.35;;
17953;SDS011;9102;53.548;9.926;2023-02-01T09:10:02;29.38;;;4.97;;
17953;SDS011;9102;53.548;9.926;2023-02-01T09:12:30;37.95;;;4.55;;
17953;SDS011;9102;53.548;9.926;2023-02-01T09:14:59;40.33;;;5.97;;
17953;SDS011;9102;53.548;9.926;2023-02-01T09:17:26;33.38;;;4.55;;
17953;SDS011;9102;53.548;9.926;2023-02-01T09:19:53;31.38;;;5.00;;
17953;SDS011;9102;53.548;9.926;2023-02-01T09:22:20;32.67;;;4.30;;
17953;SDS011;9102;53.548;9.926;2023-02-01T09:24:47;46.55;;;5.28;;
17953;SDS011;9102;53.548;9.926;2023-02-01T09:27:14;28.55;;;3.85;;
17953;SDS011;9102;53.548;9.926;2023-02-01T09:29:41;36.90;;;4.95;;
17953;SDS011;9102;53.548;9.926;2023-02-01T09:32:09;31.25;;;5.43;;
17953;SDS011;9102;53.548;9.926;2023-02-01T09:34:36;42.50;;;4.97;;
17953;SDS011;9102;53.548;9.926;2023-02-01T09:37:03;35.13;;;4.85;;
17953;SDS011;9102;53.548;9.926;2023-02-01T09:39:29;36.10;;;4.85;;
17953;SDS011;9102;53.548;9.926;2023-02-01T09:41:59;40.75;;;4.68;;
17953;SDS011;9102;53.548;9.926;2023-02-01T09:44:48;39.83;;;5.43;;
17953;SDS011;9102;53.548;9.926;2023-02-01T09:47:26;46.35;;;5.88;;
17953;SDS011;9102;53.548;9.926;2023-02-01T09:49:55;29.17;;;4.30;;
17953;SDS011;9102;53.548;9.926;2023-02-01T09:52:27;28.23;;;4.53;;
17953;SDS011;9102;53.548;9.926;2023-02-01T09:54:59;40.53;;;5.40;;
17953;SDS011;9102;53.548;9.926;2023-02-01T09:57:33;27.83;;;4.03;;
17953;SDS011;9102;53.548;9.926;2023-02-01T10:00:14;34.95;;;4.32;;
17953;SDS011;9102;53.548;9.926;2023-02-01T10:02:45;29.42;;;4.60;;
17953;SDS011;9102;53.548;9.926;2023-02-01T10:05:13;32.00;;;4.53;;
17953;SDS011;9102;53.548;9.926;2023-02-01T10:07:47;31.35;;;4.05;;
17953;SDS011;9102;53.548;9.926;2023-02-01T10:10:26;29.50;;;3.67;;
17953;SDS011;9102;53.548;9.926;2023-02-01T10:13:12;31.38;;;5.22;;
17953;SDS011;9102;53.548;9.926;2023-02-01T10:15:56;25.35;;;4.20;;
17953;SDS011;9102;53.548;9.926;2023-02-01T10:18:39;24.20;;;3.83;;
17953;SDS011;9102;53.548;9.926;2023-02-01T10:21:19;27.38;;;5.35;;
17953;SDS011;9102;53.548;9.926;2023-02-01T10:24:02;28.17;;;3.85;;
17953;SDS011;9102;53.548;9.926;2023-02-01T10:26:47;30.70;;;3.90;;
17953;SDS011;9102;53.548;9.926;2023-02-01T10:29:22;33.67;;;4.35;;
17953;SDS011;9102;53.548;9.926;2023-02-01T10:31:52;28.02;;;4.03;;
17953;SDS011;9102;53.548;9.926;2023-02-01T10:34:22;29.50;;;3.70;;
17953;SDS011;9102;53.548;9.926;2023-02-01T10:36:53;32.97;;;3.83;;
17953;SDS011;9102;53.548;9.926;2023-02-01T10:39:22;27.27;;;3.55;;
17953;SDS011;9102;53.548;9.926;2023-02-01T10:41:49;28.83;;;4.75;;
17953;SDS011;9102;53.548;9.926;2023-02-01T10:44:17;28.08;;;3.67;;
17953;SDS011;9102;53.548;9.926;2023-02-01T10:46:48;33.53;;;4.75;;
17953;SDS011;9102;53.548;9.926;2023-02-01T10:49:17;30.10;;;4.05;;
17953;SDS011;9102;53.548;9.926;2023-02-01T10:51:49;27.65;;;4.00;;
17953;SDS011;9102;53.548;9.926;2023-02-01T10:54:20;22.80;;;3.92;;
17953;SDS011;9102;53.548;9.926;2023-02-01T10:56:50;34.38;;;4.25;;
17953;SDS011;9102;53.548;9.926;2023-02-01T10:59:19;37.63;;;5.72;;
17953;SDS011;9102;53.548;9.926;2023-02-01T11:01:49;44.58;;;5.90;;
17953;SDS011;9102;53.548;9.926;2023-02-01T11:04:24;27.40;;;4.03;;
17953;SDS011;9102;53.548;9.926;2023-02-01T11:06:55;33.65;;;5.07;;
17953;SDS011;9102;53.548;9.926;2023-02-01T11:09:32;31.50;;;4.63;;
17953;SDS011;9102;53.548;9.926;2023-02-01T11:12:04;32.15;;;4.60;;
17953;SDS011;9102;53.548;9.926;2023-02-01T11:14:33;24.67;;;4.63;;
17953;SDS011;9102;53.548;9.926;2023-02-01T11:17:16;42.67;;;4.43;;
17953;SDS011;9102;53.548;9.926;2023-02-01T11:19:56;26.65;;;3.85;;
17953;SDS011;9102;53.548;9.926;2023-02-01T11:22:25;38.42;;;5.15;;
17953;SDS011;9102;53.548;9.926;2023-02-01T11:24:54;30.90;;;4.00;;
17953;SDS011;9102;53.548;9.926;2023-02-01T11:27:22;33.17;;;5.88;;
17953;SDS011;9102;53.548;9.926;2023-02-01T11:29:51;29.10;;;4.65;;
17953;SDS011;9102;53.548;9.926;2023-02-01T11:32:21;30.42;;;4.20;;
17953;SDS011;9102;53.548;9.926;2023-02-01T11:34:51;31.40;;;4.65;;
17953;SDS011;9102;53.548;9.926;2023-02-01T11:37:21;37.25;;;6.07;;
17953;SDS011;9102;53.548;9.926;2023-02-01T11:39:58;34.72;;;4.00;;
17953;SDS011;9102;53.548;9.926;2023-02-01T11:42:26;26.75;;;4.03;;
17953;SDS011;9102;53.548;9.926;2023-02-01T11:45:09;31.83;;;4.22;;
17953;SDS011;9102;53.548;9.926;2023-02-01T11:47:44;27.80;;;3.33;;
17953;SDS011;9102;53.548;9.926;2023-02-01T11:50:13;26.92;;;3.90;;
17953;SDS011;9102;53.548;9.926;2023-02-01T11:52:50;22.73;;;3.78;;
17953;SDS011;9102;53.548;9.926;2023-02-01T11:55:36;23.17;;;4.03;;
17953;SDS011;9102;53.548;9.926;2023-02-01T11:58:12;20.85;;;3.47;;
17953;SDS011;9102;53.548;9.926;2023-02-01T12:01:03;27.25;;;5.72;;
17953;SDS011;9102;53.548;9.926;2023-02-01T12:03:45;19.20;;;2.45;;
17953;SDS011;9102;53.548;9.926;2023-02-01T12:06:45;20.60;;;2.85;;
17953;SDS011;9102;53.548;9.926;2023-02-01T12:09:20;23.77;;;3.83;;
17953;SDS011;9102;53.548;9.926;2023-02-01T12:12:01;30.70;;;4.07;;
17953;SDS011;9102;53.548;9.926;2023-02-01T12:14:38;16.02;;;3.35;;
17953;SDS011;9102;53.548;9.926;2023-02-01T12:17:31;26.67;;;4.05;;
17953;SDS011;9102;53.548;9.926;2023-02-01T12:20:15;21.00;;;3.03;;
17953;SDS011;9102;53.548;9.926;2023-02-01T12:23:04;19.10;;;3.38;;
17953;SDS011;9102;53.548;9.926;2023-02-01T12:25:42;16.60;;;2.25;;
17953;SDS011;9102;53.548;9.926;2023-02-01T12:28:28;17.95;;;3.08;;
17953;SDS011;9102;53.548;9.926;2023-02-01T12:31:09;17.50;;;2.90;;
17953;SDS011;9102;53.548;9.926;2023-02-01T12:33:52;15.30;;;2.47;;
17953;SDS011;9102;53.548;9.926;2023-02-01T12:36:32;17.90;;;2.70;;
17953;SDS011;9102;53.548;9.926;2023-02-01T12:39:08;4.80;;;1.00;;
17953;SDS011;9102;53.548;9.926;2023-02-01T12:41:47;9.32;;;1.75;;
17953;SDS011;9102;53.548;9.926;2023-02-01T12:44:23;5.78;;;1.10;;
17953;SDS011;9102;53.548;9.926;2023-02-01T12:46:57;3.25;;;0.70;;
17953;SDS011;9102;53.548;9.926;2023-02-01T12:49:28;4.68;;;1.10;;
17953;SDS011;9102;53.548;9.926;2023-02-01T12:52:05;2.75;;;0.70;;
17953;SDS011;9102;53.548;9.926;2023-02-01T12:54:39;5.30;;;0.77;;
17953;SDS011;9102;53.548;9.926;2023-02-01T12:57:11;2.72;;;0.70;;
17953;SDS011;9102;53.548;9.926;2023-02-01T12:59:42;4.13;;;0.93;;
17953;SDS011;9102;53.548;9.926;2023-02-01T13:02:15;6.00;;;0.85;;
17953;SDS011;9102;53.548;9.926;2023-02-01T13:04:50;5.13;;;0.95;;
17953;SDS011;9102;53.548;9.926;2023-02-01T13:07:24;1.95;;;0.65;;
17953;SDS011;9102;53.548;9.926;2023-02-01T13:09:55;3.45;;;0.90;;
17953;SDS011;9102;53.548;9.926;2023-02-01T13:12:28;3.55;;;0.82;;
17953;SDS011;9102;53.548;9.926;2023-02-01T13:15:02;3.97;;;1.23;;
17953;SDS011;9102;53.548;9.926;2023-02-01T13:17:35;4.38;;;0.65;;
17953;SDS011;9102;53.548;9.926;2023-02-01T13:20:05;1.88;;;0.60;;
17953;SDS011;9102;53.548;9.926;2023-02-01T13:22:42;2.35;;;0.88;;
17953;SDS011;9102;53.548;9.926;2023-02-01T13:25:13;9.48;;;1.10;;
17953;SDS011;9102;53.548;9.926;2023-02-01T13:27:43;2.03;;;0.73;;
17953;SDS011;9102;53.548;9.926;2023-02-01T13:30:14;2.33;;;0.65;;
17953;SDS011;9102;53.548;9.926;2023-02-01T13:35:53;2.03;;;0.70;;
17953;SDS011;9102;53.548;9.926;2023-02-01T13:38:38;4.38;;;0.60;;
17953;SDS011;9102;53.548;9.926;2023-02-01T13:41:23;4.10;;;0.70;;
17953;SDS011;9102;53.548;9.926;2023-02-01T13:43:54;2.08;;;0.80;;
17953;SDS011;9102;53.548;9.926;2023-02-01T13:46:25;2.88;;;0.65;;
17953;SDS011;9102;53.548;9.926;2023-02-01T13:48:54;6.05;;;0.80;;
17953;SDS011;9102;53.548;9.926;2023-02-01T13:51:34;2.67;;;1.00;;
17953;SDS011;9102;53.548;9.926;2023-02-01T13:54:03;4.28;;;0.80;;
17953;SDS011;9102;53.548;9.926;2023-02-01T13:56:39;7.82;;;0.82;;
17953;SDS011;9102;53.548;9.926;2023-02-01T14:08:38;5.75;;;1.15;;
17953;SDS011;9102;53.548;9.926;2023-02-01T14:23:11;16.75;;;1.48;;
17953;SDS011;9102;53.548;9.926;2023-02-01T14:25:41;8.35;;;1.50;;
17953;SDS011;9102;53.548;9.926;2023-02-01T14:28:12;8.93;;;1.30;;
17953;SDS011;9102;53.548;9.926;2023-02-01T14:30:51;8.02;;;1.45;;
17953;SDS011;9102;53.548;9.926;2023-02-01T14:33:22;8.52;;;1.60;;
17953;SDS011;9102;53.548;9.926;2023-02-01T14:35:59;12.30;;;1.95;;
17953;SDS011;9102;53.548;9.926;2023-02-01T14:38:30;12.55;;;1.50;;
17953;SDS011;9102;53.548;9.926;2023-02-01T14:41:12;8.88;;;1.23;;
17953;SDS011;9102;53.548;9.926;2023-02-01T14:43:50;10.95;;;1.50;;
17953;SDS011;9102;53.548;9.926;2023-02-01T14:46:17;8.05;;;1.33;;
17953;SDS011;9102;53.548;9.926;2023-02-01T14:48:45;12.90;;;1.67;;
17953;SDS011;9102;53.548;9.926;2023-02-01T14:51:15;10.95;;;1.92;;
17953;SDS011;9102;53.548;9.926;2023-02-01T14:53:43;19.77;;;2.20;;
17953;SDS011;9102;53.548;9.926;2023-02-01T14:56:12;13.70;;;2.17;;
17953;SDS011;9102;53.548;9.926;2023-02-01T14:58:42;23.55;;;2.22;;
17953;SDS011;9102;53.548;9.926;2023-02-01T15:01:15;22.30;;;2.47;;
17953;SDS011;9102;53.548;9.926;2023-02-01T15:03:47;25.50;;;3.90;;
17953;SDS011;9102;53.548;9.926;2023-02-01T15:09:11;19.42;;;2.38;;
17953;SDS011;9102;53.548;9.926;2023-02-01T15:11:54;17.90;;;2.75;;
17953;SDS011;9102;53.548;9.926;2023-02-01T15:14:27;17.75;;;2.88;;
17953;SDS011;9102;53.548;9.926;2023-02-01T15:16:55;20.90;;;2.45;;
17953;SDS011;9102;53.548;9.926;2023-02-01T15:19:23;18.27;;;2.60;;
17953;SDS011;9102;53.548;9.926;2023-02-01T15:21:53;19.27;;;2.75;;
17953;SDS011;9102;53.548;9.926;2023-02-01T15:24:22;10.95;;;2.17;;
17953;SDS011;9102;53.548;9.926;2023-02-01T15:26:50;16.63;;;2.22;;
17953;SDS011;9102;53.548;9.926;2023-02-01T15:29:18;13.85;;;2.38;;
17953;SDS011;9102;53.548;9.926;2023-02-01T15:31:47;12.60;;;1.85;;
17953;SDS011;9102;53.548;9.926;2023-02-01T15:34:17;13.80;;;2.25;;
17953;SDS011;9102;53.548;9.926;2023-02-01T15:36:45;21.25;;;1.88;;
17953;SDS011;9102;53.548;9.926;2023-02-01T15:39:24;14.77;;;2.00;;
17953;SDS011;9102;53.548;9.926;2023-02-01T15:41:52;13.63;;;2.45;;
17953;SDS011;9102;53.548;9.926;2023-02-01T15:44:27;17.23;;;2.20;;
17953;SDS011;9102;53.548;9.926;2023-02-01T15:46:58;23.40;;;2.70;;
17953;SDS011;9102;53.548;9.926;2023-02-01T15:49:27;21.60;;;2.53;;
17953;SDS011;9102;53.548;9.926;2023-02-01T15:51:56;14.90;;;2.92;;